createdAt,value
2023-03-08T00:02:07.870Z,10.37
2023-03-08T00:04:35.983Z,10.39
2023-03-08T00:07:04.127Z,10.39
2023-03-08T00:09:32.071Z,10.30
2023-03-08T00:12:00.066Z,10.42
2023-03-08T00:14:29.452Z,10.43
2023-03-08T00:16:57.474Z,10.35
2023-03-08T00:19:25.386Z,10.23
2023-03-08T00:21:53.467Z,10.34
2023-03-08T00:24:21.518Z,10.31
2023-03-08T00:26:49.590Z,10.29
2023-03-08T00:29:17.519Z,10.28
2023-03-08T00:31:47.204Z,10.27
2023-03-08T00:34:15.146Z,10.26
2023-03-08T00:36:43.178Z,10.14
2023-03-08T00:39:12.220Z,10.23
2023-03-08T00:41:40.211Z,10.20
2023-03-08T00:44:08.159Z,10.23
2023-03-08T00:46:36.213Z,10.22
2023-03-08T00:49:05.561Z,10.16
2023-03-08T00:51:33.907Z,10.12
2023-03-08T00:54:01.952Z,10.06
2023-03-08T00:56:29.893Z,9.94
2023-03-08T00:58:58.202Z,9.87
2023-03-08T01:01:26.294Z,9.67
2023-03-08T01:03:54.288Z,9.68
2023-03-08T01:06:25.824Z,9.47
2023-03-08T01:08:53.801Z,9.59
2023-03-08T01:11:22.648Z,9.51
2023-03-08T01:13:51.227Z,9.49
2023-03-08T01:16:20.059Z,9.43
2023-03-08T01:18:48.011Z,9.30
2023-03-08T01:21:15.919Z,9.38
2023-03-08T01:23:45.536Z,9.18
2023-03-08T01:26:14.298Z,9.37
2023-03-08T01:28:42.365Z,9.35
2023-03-08T01:31:12.267Z,9.31
2023-03-08T01:33:41.792Z,9.26
2023-03-08T01:36:11.446Z,9.26
2023-03-08T01:38:39.504Z,9.18
2023-03-08T01:41:09.329Z,9.16
2023-03-08T01:43:41.041Z,9.12
2023-03-08T01:46:17.682Z,9.12
2023-03-08T01:48:54.006Z,9.11
2023-03-08T01:51:25.866Z,9.12
2023-03-08T01:53:53.827Z,9.12
2023-03-08T01:56:23.107Z,9.10
2023-03-08T01:58:51.273Z,9.09
2023-03-08T02:01:19.769Z,9.11
2023-03-08T02:03:49.043Z,9.09
2023-03-08T02:06:19.475Z,9.00
2023-03-08T02:08:47.467Z,9.17
2023-03-08T02:11:15.409Z,9.18
2023-03-08T02:13:44.787Z,9.17
2023-03-08T02:16:14.465Z,9.19
2023-03-08T02:19:05.025Z,9.18
2023-03-08T02:21:35.833Z,9.15
2023-03-08T02:24:06.892Z,9.11
2023-03-08T02:26:34.956Z,9.14
2023-03-08T02:29:02.918Z,9.16
2023-03-08T02:31:31.065Z,9.01
2023-03-08T02:33:59.509Z,9.12
2023-03-08T02:36:28.431Z,9.11
2023-03-08T02:38:56.454Z,9.14
2023-03-08T02:41:25.814Z,9.09
2023-03-08T02:44:32.994Z,9.10
2023-03-08T02:47:01.175Z,8.97
2023-03-08T02:49:29.115Z,8.98
2023-03-08T02:52:03.506Z,8.95
2023-03-08T02:54:31.685Z,8.98
2023-03-08T02:57:01.066Z,8.84
2023-03-08T02:59:30.918Z,8.89
2023-03-08T03:01:59.850Z,8.89
2023-03-08T03:04:30.636Z,8.84
2023-03-08T03:06:58.702Z,8.87
2023-03-08T03:09:26.783Z,8.87
2023-03-08T03:11:55.267Z,8.74
2023-03-08T03:14:24.899Z,8.80
2023-03-08T03:16:53.086Z,8.77
2023-03-08T03:19:21.388Z,8.73
2023-03-08T03:21:50.463Z,8.71
2023-03-08T03:24:18.589Z,8.74
2023-03-08T03:26:52.278Z,8.74
2023-03-08T03:29:21.659Z,8.70
2023-03-08T03:31:56.036Z,8.70
2023-03-08T03:34:24.804Z,8.70
2023-03-08T03:36:56.311Z,8.70
2023-03-08T03:39:24.775Z,8.67
2023-03-08T03:41:53.889Z,8.70
2023-03-08T03:44:21.948Z,8.73
2023-03-08T03:46:50.362Z,8.75
2023-03-08T03:49:25.104Z,8.76
2023-03-08T03:51:53.242Z,8.77
2023-03-08T03:54:34.134Z,8.75
2023-03-08T03:57:02.160Z,8.77
2023-03-08T03:59:35.032Z,8.80
2023-03-08T04:02:04.041Z,8.77
2023-03-08T04:04:42.218Z,8.81
2023-03-08T04:07:12.775Z,8.81
2023-03-08T04:09:45.551Z,8.80
2023-03-08T04:12:17.374Z,8.72
2023-03-08T04:14:46.060Z,8.67
2023-03-08T04:17:15.296Z,8.55
2023-03-08T04:19:50.890Z,8.42
2023-03-08T04:22:20.950Z,8.56
2023-03-08T04:24:53.774Z,8.55
2023-03-08T04:27:27.959Z,8.46
2023-03-08T04:29:56.207Z,8.50
2023-03-08T04:32:24.971Z,8.49
2023-03-08T04:34:59.143Z,8.46
2023-03-08T04:37:31.123Z,8.46
2023-03-08T04:40:09.506Z,8.42
2023-03-08T04:42:49.678Z,8.37
2023-03-08T04:45:21.995Z,8.39
2023-03-08T04:47:50.961Z,8.33
2023-03-08T04:50:20.529Z,8.28
2023-03-08T04:52:48.908Z,8.24
2023-03-08T04:55:20.655Z,8.23
2023-03-08T04:57:48.680Z,8.16
2023-03-08T05:00:18.062Z,8.23
2023-03-08T05:02:46.220Z,8.20
2023-03-08T05:05:18.339Z,8.25
2023-03-08T05:07:50.932Z,8.30
2023-03-08T05:10:19.496Z,8.34
2023-03-08T05:12:47.452Z,8.35
2023-03-08T05:15:15.756Z,8.28
2023-03-08T05:17:43.705Z,8.39
2023-03-08T05:20:12.638Z,8.38
2023-03-08T05:22:57.686Z,8.41
2023-03-08T05:25:33.669Z,8.37
2023-03-08T05:28:03.170Z,8.43
2023-03-08T05:30:31.856Z,8.45
2023-03-08T05:33:00.096Z,8.44
2023-03-08T05:35:30.752Z,8.40
2023-03-08T05:37:59.138Z,8.37
2023-03-08T05:40:27.953Z,8.30
2023-03-08T05:42:58.667Z,8.27
2023-03-08T05:45:30.671Z,8.34
2023-03-08T05:48:00.782Z,8.33
2023-03-08T05:50:33.230Z,8.34
2023-03-08T05:53:02.563Z,8.36
2023-03-08T05:55:31.358Z,8.34
2023-03-08T05:58:01.920Z,8.34
2023-03-08T06:00:31.537Z,8.33
2023-03-08T06:03:03.934Z,8.33
2023-03-08T06:05:35.117Z,8.34
2023-03-08T06:08:03.646Z,8.35
2023-03-08T06:10:31.640Z,8.33
2023-03-08T06:13:01.185Z,8.33
2023-03-08T06:15:29.413Z,8.26
2023-03-08T06:17:59.574Z,8.33
2023-03-08T06:20:30.365Z,8.22
2023-03-08T06:22:58.406Z,8.32
2023-03-08T06:25:26.418Z,8.34
2023-03-08T06:27:55.308Z,8.31
2023-03-08T06:30:40.880Z,8.28
2023-03-08T06:33:08.986Z,8.26
2023-03-08T06:35:37.172Z,8.23
2023-03-08T06:38:06.677Z,8.20
2023-03-08T06:40:35.376Z,8.18
2023-03-08T06:43:03.502Z,8.10
2023-03-08T06:45:34.863Z,8.12
2023-03-08T06:48:04.449Z,8.05
2023-03-08T06:50:32.570Z,8.00
2023-03-08T06:53:00.694Z,8.05
2023-03-08T06:55:46.078Z,8.05
2023-03-08T06:58:14.166Z,8.05
2023-03-08T07:00:42.192Z,8.05
2023-03-08T07:03:12.118Z,8.06
2023-03-08T07:05:40.544Z,8.10
2023-03-08T07:08:08.536Z,8.12
2023-03-08T07:10:36.525Z,8.10
2023-03-08T07:13:04.576Z,8.17
2023-03-08T07:15:32.924Z,8.15
2023-03-08T07:18:00.849Z,8.17
2023-03-08T07:20:32.475Z,8.07
2023-03-08T07:23:01.979Z,8.23
2023-03-08T07:25:29.924Z,8.22
2023-03-08T07:27:59.827Z,8.17
2023-03-08T07:30:27.889Z,8.21
2023-03-08T07:32:56.151Z,8.22
2023-03-08T07:35:24.525Z,8.22
2023-03-08T07:37:53.876Z,8.18
2023-03-08T07:40:22.090Z,8.21
2023-03-08T07:42:50.379Z,8.19
2023-03-08T07:45:34.762Z,8.09
2023-03-08T07:48:02.792Z,8.20
2023-03-08T07:50:30.749Z,8.24
2023-03-08T07:53:01.616Z,8.26
2023-03-08T07:55:29.806Z,8.22
2023-03-08T07:57:57.876Z,8.24
2023-03-08T08:00:26.622Z,8.23
2023-03-08T08:02:55.168Z,8.20
2023-03-08T08:05:23.399Z,8.14
2023-03-08T08:07:51.432Z,8.25
2023-03-08T08:10:20.933Z,8.20
2023-03-08T08:12:49.039Z,8.24
2023-03-08T08:15:17.860Z,8.24
2023-03-08T08:17:45.802Z,8.29
2023-03-08T08:20:14.718Z,8.32
2023-03-08T08:22:42.944Z,8.31
2023-03-08T08:25:11.616Z,8.37
2023-03-08T08:27:41.034Z,8.33
2023-03-08T08:30:11.286Z,8.42
2023-03-08T08:32:39.454Z,8.48
2023-03-08T08:35:08.125Z,8.53
2023-03-08T08:37:36.517Z,8.34
2023-03-08T08:40:08.045Z,8.36
2023-03-08T08:42:36.211Z,8.40
2023-03-08T08:45:07.175Z,8.38
2023-03-08T08:47:35.537Z,8.55
2023-03-08T08:50:06.074Z,8.58
2023-03-08T08:52:37.220Z,8.34
2023-03-08T08:55:06.129Z,8.55
2023-03-08T08:57:35.526Z,8.67
2023-03-08T09:00:13.529Z,8.61
2023-03-08T09:02:41.800Z,8.69
2023-03-08T09:05:10.772Z,8.69
2023-03-08T09:07:39.338Z,8.70
2023-03-08T09:10:10.432Z,8.66
2023-03-08T09:12:40.367Z,8.54
2023-03-08T09:15:11.588Z,8.67
2023-03-08T09:17:40.052Z,8.64
2023-03-08T09:20:10.251Z,8.63
2023-03-08T09:22:38.453Z,8.62
2023-03-08T09:25:06.634Z,8.51
2023-03-08T09:27:34.651Z,8.59
2023-03-08T09:30:02.741Z,8.68
2023-03-08T09:32:34.075Z,8.68
2023-03-08T09:35:02.296Z,8.66
2023-03-08T09:37:30.373Z,8.53
2023-03-08T09:39:58.790Z,8.48
2023-03-08T09:42:28.098Z,8.60
2023-03-08T09:45:07.385Z,8.66
2023-03-08T09:47:44.516Z,8.53
2023-03-08T09:50:20.866Z,8.59
2023-03-08T09:52:52.245Z,8.65
2023-03-08T09:55:26.328Z,8.69
2023-03-08T09:57:56.406Z,8.71
2023-03-08T10:00:27.358Z,8.76
2023-03-08T10:03:14.950Z,8.80
2023-03-08T10:05:44.126Z,8.69
2023-03-08T10:08:16.859Z,8.82
2023-03-08T10:11:01.867Z,8.78
2023-03-08T10:13:34.236Z,8.75
2023-03-08T10:16:08.212Z,8.57
2023-03-08T10:18:41.188Z,8.64
2023-03-08T10:21:17.351Z,8.60
2023-03-08T10:23:49.541Z,8.65
2023-03-08T10:26:22.158Z,8.68
2023-03-08T10:28:51.594Z,8.68
2023-03-08T10:31:22.777Z,8.69
2023-03-08T10:33:59.308Z,8.60
2023-03-08T10:36:27.777Z,8.64
2023-03-08T10:39:10.040Z,8.81
2023-03-08T10:42:10.316Z,8.75
2023-03-08T10:44:52.037Z,8.78
2023-03-08T10:48:01.312Z,8.74
2023-03-08T10:50:32.396Z,8.73
2023-03-08T10:53:10.274Z,8.76
2023-03-08T10:55:45.413Z,8.72
2023-03-08T10:58:31.954Z,8.82
2023-03-08T11:01:02.537Z,8.80
2023-03-08T11:03:31.509Z,8.82
2023-03-08T11:06:03.464Z,8.88
2023-03-08T11:08:45.325Z,8.91
2023-03-08T11:11:16.241Z,8.71
2023-03-08T11:13:48.082Z,8.77
2023-03-08T11:16:55.851Z,8.92
2023-03-08T11:19:31.732Z,8.85
2023-03-08T11:22:06.234Z,8.77
2023-03-08T11:24:53.331Z,8.85
2023-03-08T11:27:30.300Z,8.88
2023-03-08T11:30:13.365Z,8.95
2023-03-08T11:32:48.195Z,8.84
2023-03-08T11:35:23.764Z,8.89
2023-03-08T11:37:56.549Z,9.04
2023-03-08T11:40:26.192Z,9.01
2023-03-08T11:43:02.207Z,8.93
2023-03-08T11:45:32.050Z,9.09
2023-03-08T11:48:35.720Z,9.12
2023-03-08T11:51:09.910Z,9.09
2023-03-08T11:53:55.671Z,9.13
2023-03-08T11:56:34.677Z,9.09
2023-03-08T11:59:08.332Z,9.00
2023-03-08T12:01:47.539Z,9.16
2023-03-08T12:04:19.010Z,9.24
2023-03-08T12:06:47.456Z,9.17
2023-03-08T12:09:22.810Z,9.05
2023-03-08T12:12:23.191Z,9.16
2023-03-08T12:15:08.681Z,9.22
2023-03-08T12:17:48.141Z,9.33
2023-03-08T12:20:34.363Z,9.34
2023-03-08T12:23:29.712Z,9.36
2023-03-08T12:26:25.600Z,9.43
2023-03-08T12:29:00.127Z,9.43
2023-03-08T12:31:29.815Z,9.42
2023-03-08T12:34:36.052Z,9.38
2023-03-08T12:37:47.829Z,9.42
2023-03-08T12:40:31.867Z,9.29
2023-03-08T12:43:45.869Z,9.48
2023-03-08T12:47:11.710Z,9.51
2023-03-08T12:49:46.554Z,9.53
2023-03-08T12:52:42.112Z,9.58
2023-03-08T12:55:42.079Z,9.62
2023-03-08T12:58:32.304Z,9.47
2023-03-08T13:01:06.891Z,9.38
2023-03-08T13:03:39.036Z,9.47
2023-03-08T13:06:26.526Z,9.53
2023-03-08T13:08:59.366Z,9.52
2023-03-08T13:26:17.811Z,9.33
2023-03-08T13:28:48.357Z,9.39
2023-03-08T13:31:19.467Z,9.54
2023-03-08T13:33:49.101Z,9.45
2023-03-08T13:36:20.455Z,9.68
2023-03-08T13:38:57.204Z,9.87
2023-03-08T13:41:39.351Z,9.81
2023-03-08T13:44:08.690Z,9.88
2023-03-08T13:46:40.056Z,9.87
2023-03-08T13:49:15.895Z,9.95
2023-03-08T13:51:44.680Z,9.98
2023-03-08T13:54:17.188Z,9.96
2023-03-08T13:56:46.679Z,9.98
2023-03-08T13:59:18.935Z,9.97
2023-03-08T14:01:50.506Z,10.00
2023-03-08T14:04:20.398Z,10.05
2023-03-08T14:06:53.288Z,10.08
2023-03-08T14:09:21.480Z,10.19
2023-03-08T14:11:58.144Z,10.22
2023-03-08T14:14:29.383Z,10.26
2023-03-08T14:16:58.198Z,10.42
2023-03-08T14:19:28.088Z,10.44
2023-03-08T14:21:57.713Z,10.48
2023-03-08T14:24:26.690Z,10.60
2023-03-08T14:26:57.688Z,10.60
2023-03-08T14:29:26.368Z,10.44
2023-03-08T14:31:59.933Z,10.60
2023-03-08T14:34:29.284Z,10.66
2023-03-08T14:36:58.796Z,10.57
2023-03-08T14:39:28.539Z,10.70
2023-03-08T14:41:58.047Z,10.64
2023-03-08T14:44:29.744Z,10.73
2023-03-08T14:47:00.337Z,10.63
2023-03-08T14:49:29.841Z,10.65
2023-03-08T14:51:57.949Z,10.70
2023-03-08T14:54:32.865Z,10.72
2023-03-08T14:57:09.536Z,10.81
2023-03-08T14:59:41.152Z,10.79
2023-03-08T15:02:12.625Z,10.82
2023-03-08T15:04:40.811Z,10.77
2023-03-08T15:07:09.103Z,10.69
2023-03-08T15:09:37.300Z,10.79
2023-03-08T15:12:09.399Z,10.85
2023-03-08T15:14:37.660Z,10.86
2023-03-08T15:17:07.287Z,10.90
2023-03-08T15:19:35.606Z,10.86
2023-03-08T15:22:04.873Z,10.87
2023-03-08T15:24:49.542Z,11.03
2023-03-08T15:27:22.855Z,11.00
2023-03-08T15:29:51.296Z,10.95
2023-03-08T15:32:19.196Z,10.96
2023-03-08T15:34:47.510Z,10.91
2023-03-08T15:37:15.603Z,10.90
2023-03-08T15:39:49.439Z,10.85
2023-03-08T15:42:26.111Z,10.81
2023-03-08T15:44:54.024Z,10.78
2023-03-08T15:47:22.055Z,10.75
2023-03-08T15:49:51.368Z,10.71
2023-03-08T15:52:19.354Z,10.69
2023-03-08T15:54:50.197Z,10.66
2023-03-08T15:57:19.521Z,10.65
2023-03-08T15:59:47.683Z,10.66
2023-03-08T16:02:16.247Z,10.64
2023-03-08T16:04:47.694Z,10.64
2023-03-08T16:07:16.927Z,10.60
2023-03-08T16:09:44.864Z,10.56
2023-03-08T16:12:12.787Z,10.56
2023-03-08T16:14:42.713Z,10.54
2023-03-08T16:17:16.589Z,10.52
2023-03-08T16:19:44.984Z,10.48
2023-03-08T16:22:12.835Z,10.51
2023-03-08T16:24:47.877Z,10.54
2023-03-08T16:27:16.033Z,10.53
2023-03-08T16:29:45.326Z,10.51
2023-03-08T16:32:14.896Z,10.53
2023-03-08T16:34:42.852Z,10.54
2023-03-08T16:37:10.768Z,10.53
2023-03-08T16:39:38.750Z,10.50
2023-03-08T16:42:06.891Z,10.49
2023-03-08T16:44:34.932Z,10.50
2023-03-08T16:47:04.277Z,10.49
2023-03-08T16:49:32.292Z,10.43
2023-03-08T16:52:00.209Z,10.43
2023-03-08T16:54:28.125Z,10.45
2023-03-08T16:56:56.045Z,10.48
2023-03-08T16:59:24.563Z,10.47
2023-03-08T17:01:52.443Z,10.47
2023-03-08T17:04:23.130Z,10.47
2023-03-08T17:06:51.111Z,10.47
2023-03-08T17:09:18.966Z,10.43
2023-03-08T17:11:47.037Z,10.39
2023-03-08T17:14:15.140Z,10.35
2023-03-08T17:16:43.503Z,10.33
2023-03-08T17:19:11.972Z,10.34
2023-03-08T17:21:41.274Z,10.30
2023-03-08T17:24:10.473Z,10.30
2023-03-08T17:26:41.531Z,10.28
2023-03-08T17:29:09.475Z,10.27
2023-03-08T17:31:39.028Z,10.27
2023-03-08T17:34:08.729Z,10.26
2023-03-08T17:36:36.748Z,10.26
2023-03-08T17:39:06.280Z,10.26
2023-03-08T17:41:34.386Z,10.26
2023-03-08T17:44:02.417Z,10.21
2023-03-08T17:46:30.456Z,10.17
2023-03-08T17:48:58.516Z,10.14
2023-03-08T17:51:27.720Z,10.13
2023-03-08T17:53:56.985Z,10.12
2023-03-08T17:56:29.237Z,10.07
2023-03-08T17:58:57.738Z,10.05
2023-03-08T18:01:26.494Z,10.06
2023-03-08T18:03:55.623Z,10.03
2023-03-08T18:06:26.039Z,9.98
2023-03-08T18:08:54.094Z,9.98
2023-03-08T18:11:22.093Z,9.95
2023-03-08T18:13:51.429Z,9.95
2023-03-08T18:16:19.499Z,9.93
2023-03-08T18:18:49.542Z,9.91
2023-03-08T18:21:17.923Z,9.89
2023-03-08T18:23:46.576Z,9.87
2023-03-08T18:26:15.975Z,9.87
2023-03-08T18:28:43.982Z,9.87
2023-03-08T18:31:15.944Z,9.88
2023-03-08T18:33:43.984Z,9.87
2023-03-08T18:36:11.867Z,9.89
2023-03-08T18:38:39.834Z,9.88
2023-03-08T18:41:14.886Z,9.89
2023-03-08T18:43:42.969Z,9.89
2023-03-08T18:46:12.391Z,9.88
2023-03-08T18:48:42.619Z,9.89
2023-03-08T18:51:10.614Z,9.92
2023-03-08T18:53:38.519Z,9.90
2023-03-08T18:56:07.277Z,9.91
2023-03-08T18:58:35.255Z,9.93
2023-03-08T19:01:03.313Z,9.91
2023-03-08T19:03:31.374Z,9.93
2023-03-08T19:06:02.284Z,9.94
2023-03-08T19:08:30.320Z,9.93
2023-03-08T19:10:58.315Z,9.88
2023-03-08T19:13:26.354Z,9.91
2023-03-08T19:15:54.241Z,9.96
2023-03-08T19:18:23.566Z,9.96
2023-03-08T19:20:52.835Z,9.97
2023-03-08T19:23:22.207Z,9.96
2023-03-08T19:26:21.925Z,9.95
2023-03-08T19:28:49.937Z,9.95
2023-03-08T19:31:18.165Z,9.97
2023-03-08T19:33:49.684Z,9.96
2023-03-08T19:36:17.613Z,9.94
2023-03-08T19:38:47.019Z,9.96
2023-03-08T19:41:16.066Z,9.96
2023-03-08T19:43:44.583Z,9.96
2023-03-08T19:46:12.492Z,9.99
2023-03-08T19:48:40.424Z,10.02
2023-03-08T19:51:08.627Z,10.03
2023-03-08T19:53:36.493Z,10.06
2023-03-08T19:56:06.396Z,10.08
2023-03-08T19:58:34.336Z,10.08
2023-03-08T20:01:03.540Z,10.08
2023-03-08T20:03:31.641Z,10.05
2023-03-08T20:05:59.603Z,9.99
2023-03-08T20:08:27.599Z,9.97
2023-03-08T20:10:55.756Z,9.99
2023-03-08T20:13:25.055Z,10.01
2023-03-08T20:15:52.989Z,10.04
2023-03-08T20:18:20.982Z,10.07
2023-03-08T20:20:50.178Z,10.11
2023-03-08T20:23:18.167Z,10.13
2023-03-08T20:25:46.028Z,10.16
2023-03-08T20:28:14.045Z,10.19
2023-03-08T20:30:43.671Z,10.20
2023-03-08T20:33:11.716Z,10.20
2023-03-08T20:35:39.908Z,10.18
2023-03-08T20:38:07.950Z,10.19
2023-03-08T20:40:37.575Z,10.15
2023-03-08T20:43:10.928Z,10.15
2023-03-08T20:45:39.661Z,10.15
2023-03-08T20:48:09.998Z,10.16
2023-03-08T20:50:38.088Z,10.18
2023-03-08T20:53:05.955Z,10.22
2023-03-08T20:55:33.873Z,10.21
2023-03-08T20:58:01.784Z,10.20
2023-03-08T21:00:29.731Z,10.21
2023-03-08T21:02:57.931Z,10.23
2023-03-08T21:05:27.215Z,10.23
2023-03-08T21:07:55.361Z,10.25
2023-03-08T21:10:23.286Z,10.23
2023-03-08T21:12:51.405Z,10.27
2023-03-08T21:15:19.506Z,10.28
2023-03-08T21:17:47.464Z,10.30
2023-03-08T21:20:15.425Z,10.32
2023-03-08T21:22:44.683Z,10.32
2023-03-08T21:25:12.805Z,10.34
2023-03-08T21:27:40.784Z,10.34
2023-03-08T21:30:10.497Z,10.31
2023-03-08T21:32:38.425Z,10.30
2023-03-08T21:35:07.011Z,10.32
2023-03-08T21:37:35.623Z,10.36
2023-03-08T21:40:07.309Z,10.39
2023-03-08T21:42:35.296Z,10.42
2023-03-08T21:45:03.214Z,10.46
2023-03-08T21:47:31.202Z,10.49
2023-03-08T21:49:59.221Z,10.50
2023-03-08T21:52:27.202Z,10.53
2023-03-08T21:54:55.091Z,10.53
2023-03-08T21:57:24.415Z,10.59
2023-03-08T21:59:52.306Z,10.62
2023-03-08T22:02:20.477Z,10.65
2023-03-08T22:04:48.388Z,10.69
2023-03-08T22:07:16.312Z,10.69
2023-03-08T22:09:44.180Z,10.69
2023-03-08T22:12:12.140Z,10.71
2023-03-08T22:14:41.444Z,10.71
2023-03-08T22:17:09.395Z,10.69
2023-03-08T22:19:37.236Z,10.69
2023-03-08T22:22:05.221Z,10.70
2023-03-08T22:24:33.171Z,10.70
2023-03-08T22:27:01.469Z,10.72
2023-03-08T22:29:30.755Z,10.71
2023-03-08T22:32:00.054Z,10.66
2023-03-08T22:34:27.934Z,10.65
2023-03-08T22:36:55.895Z,10.65
2023-03-08T22:39:23.835Z,10.63
2023-03-08T22:41:51.725Z,10.62
2023-03-08T22:44:19.688Z,10.61
2023-03-08T22:46:47.950Z,10.59
2023-03-08T22:49:17.302Z,10.56
2023-03-08T22:51:45.219Z,10.57
2023-03-08T22:54:15.399Z,10.53
2023-03-08T22:56:43.323Z,10.54
2023-03-08T22:59:11.230Z,10.55
2023-03-08T23:01:39.511Z,10.59
2023-03-08T23:04:09.306Z,10.60
2023-03-08T23:06:39.115Z,10.62
2023-03-08T23:09:08.463Z,10.57
2023-03-08T23:11:37.041Z,10.62
2023-03-08T23:14:05.057Z,10.60
2023-03-08T23:16:33.162Z,10.57
2023-03-08T23:19:01.088Z,10.53
2023-03-08T23:21:30.400Z,10.51
2023-03-08T23:23:59.665Z,10.51
2023-03-08T23:26:28.589Z,10.52
2023-03-08T23:28:56.823Z,10.49
2023-03-08T23:31:25.740Z,10.45
2023-03-08T23:33:53.713Z,10.44
2023-03-08T23:36:23.918Z,10.40
2023-03-08T23:38:52.084Z,10.41
2023-03-08T23:41:21.367Z,10.43
2023-03-08T23:43:49.332Z,10.44
2023-03-08T23:46:18.951Z,10.45
2023-03-08T23:48:47.363Z,10.42
2023-03-08T23:51:16.661Z,10.45
2023-03-08T23:53:44.597Z,10.43
2023-03-08T23:56:17.797Z,10.39
2023-03-08T23:58:48.820Z,10.36
